sensor_id;sensor_type;location;lat;lon;timestamp;P1;P2;P0
62547;PMS7003;48602;45.192;5.722;2023-07-30T00:01:29;7.00;7.00;5.75
62547;PMS7003;48602;45.192;5.722;2023-07-30T00:03:55;5.50;5.00;4.00
62547;PMS7003;48602;45.192;5.722;2023-07-30T00:06:20;6.25;6.25;5.00
62547;PMS7003;48602;45.192;5.722;2023-07-30T00:08:46;8.00;7.00;6.25
62547;PMS7003;48602;45.192;5.722;2023-07-30T00:11:11;6.75;6.75;5.75
62547;PMS7003;48602;45.192;5.722;2023-07-30T00:13:36;7.50;7.50;6.00
62547;PMS7003;48602;45.192;5.722;2023-07-30T00:16:02;8.50;8.00;7.00
62547;PMS7003;48602;45.192;5.722;2023-07-30T00:18:27;5.75;5.75;5.00
62547;PMS7003;48602;45.192;5.722;2023-07-30T00:20:52;3.75;3.00;2.25
62547;PMS7003;48602;45.192;5.722;2023-07-30T00:23:18;7.00;7.00;6.00
62547;PMS7003;48602;45.192;5.722;2023-07-30T00:25:43;9.50;7.75;7.00
62547;PMS7003;48602;45.192;5.722;2023-07-30T00:28:09;7.00;7.00;6.00
62547;PMS7003;48602;45.192;5.722;2023-07-30T00:30:34;8.25;8.25;7.25
62547;PMS7003;48602;45.192;5.722;2023-07-30T00:32:59;8.75;8.25;7.25
62547;PMS7003;48602;45.192;5.722;2023-07-30T00:35:25;7.25;7.25;6.00
62547;PMS7003;48602;45.192;5.722;2023-07-30T00:37:50;7.25;7.25;6.25
62547;PMS7003;48602;45.192;5.722;2023-07-30T00:40:16;7.25;7.25;6.25
62547;PMS7003;48602;45.192;5.722;2023-07-30T00:42:42;9.50;9.25;7.75
62547;PMS7003;48602;45.192;5.722;2023-07-30T00:45:08;12.25;10.25;8.50
62547;PMS7003;48602;45.192;5.722;2023-07-30T00:47:34;9.60;9.60;8.20
62547;PMS7003;48602;45.192;5.722;2023-07-30T00:50:00;11.25;11.00;9.25
62547;PMS7003;48602;45.192;5.722;2023-07-30T00:52:26;10.50;10.00;8.25
62547;PMS7003;48602;45.192;5.722;2023-07-30T00:54:53;10.60;8.00;6.80
62547;PMS7003;48602;45.192;5.722;2023-07-30T00:57:21;10.20;10.00;8.40
62547;PMS7003;48602;45.192;5.722;2023-07-30T00:59:48;11.25;11.00;9.00
62547;PMS7003;48602;45.192;5.722;2023-07-30T01:02:14;13.50;10.25;9.00
62547;PMS7003;48602;45.192;5.722;2023-07-30T01:04:40;11.50;11.50;9.50
62547;PMS7003;48602;45.192;5.722;2023-07-30T01:07:05;10.75;10.25;8.00
62547;PMS7003;48602;45.192;5.722;2023-07-30T01:09:32;12.20;12.00;10.20
62547;PMS7003;48602;45.192;5.722;2023-07-30T01:11:58;12.50;11.00;10.00
62547;PMS7003;48602;45.192;5.722;2023-07-30T01:14:26;15.60;15.60;11.80
62547;PMS7003;48602;45.192;5.722;2023-07-30T01:16:52;12.50;12.00;11.00
62547;PMS7003;48602;45.192;5.722;2023-07-30T01:19:18;11.80;11.80;10.20
62547;PMS7003;48602;45.192;5.722;2023-07-30T01:21:43;14.00;12.50;10.50
62547;PMS7003;48602;45.192;5.722;2023-07-30T01:24:09;14.25;12.25;10.00
62547;PMS7003;48602;45.192;5.722;2023-07-30T01:26:44;8.75;8.25;7.75
62547;PMS7003;48602;45.192;5.722;2023-07-30T01:29:20;12.60;10.60;9.40
62547;PMS7003;48602;45.192;5.722;2023-07-30T01:31:55;14.00;11.50;10.50
62547;PMS7003;48602;45.192;5.722;2023-07-30T01:34:23;12.40;12.20;10.00
62547;PMS7003;48602;45.192;5.722;2023-07-30T01:36:52;12.00;11.60;10.20
62547;PMS7003;48602;45.192;5.722;2023-07-30T01:39:19;11.60;11.60;10.00
62547;PMS7003;48602;45.192;5.722;2023-07-30T01:41:45;15.25;13.25;10.75
62547;PMS7003;48602;45.192;5.722;2023-07-30T01:44:11;11.00;10.50;8.50
62547;PMS7003;48602;45.192;5.722;2023-07-30T01:46:36;12.00;9.00;8.00
62547;PMS7003;48602;45.192;5.722;2023-07-30T01:49:02;3.75;3.50;2.25
62547;PMS7003;48602;45.192;5.722;2023-07-30T01:51:27;10.00;8.75;7.75
62547;PMS7003;48602;45.192;5.722;2023-07-30T01:53:52;11.00;10.25;8.75
62547;PMS7003;48602;45.192;5.722;2023-07-30T01:56:18;11.00;9.50;8.00
62547;PMS7003;48602;45.192;5.722;2023-07-30T01:58:43;9.25;8.00;7.25
62547;PMS7003;48602;45.192;5.722;2023-07-30T02:01:08;9.00;9.00;8.00
62547;PMS7003;48602;45.192;5.722;2023-07-30T02:03:34;10.50;9.25;8.00
62547;PMS7003;48602;45.192;5.722;2023-07-30T02:05:59;10.00;9.50;8.00
62547;PMS7003;48602;45.192;5.722;2023-07-30T02:08:25;11.00;8.00;7.00
62547;PMS7003;48602;45.192;5.722;2023-07-30T02:10:57;8.50;7.25;6.50
62547;PMS7003;48602;45.192;5.722;2023-07-30T02:13:23;10.40;9.20;7.00
62547;PMS7003;48602;45.192;5.722;2023-07-30T02:15:49;8.00;7.00;5.00
62547;PMS7003;48602;45.192;5.722;2023-07-30T02:18:14;7.25;6.75;6.25
62547;PMS7003;48602;45.192;5.722;2023-07-30T02:20:39;6.75;6.75;6.00
62547;PMS7003;48602;45.192;5.722;2023-07-30T02:23:05;6.50;5.75;5.00
62547;PMS7003;48602;45.192;5.722;2023-07-30T02:25:30;6.25;6.25;5.00
62547;PMS7003;48602;45.192;5.722;2023-07-30T02:27:56;8.00;8.00;7.00
62547;PMS7003;48602;45.192;5.722;2023-07-30T02:30:21;8.00;8.00;6.00
62547;PMS7003;48602;45.192;5.722;2023-07-30T02:32:47;7.50;4.25;4.25
62547;PMS7003;48602;45.192;5.722;2023-07-30T02:35:12;9.75;9.75;6.75
62547;PMS7003;48602;45.192;5.722;2023-07-30T02:37:38;9.00;7.00;7.00
62547;PMS7003;48602;45.192;5.722;2023-07-30T02:40:03;13.50;13.50;10.25
62547;PMS7003;48602;45.192;5.722;2023-07-30T02:42:30;12.80;12.80;10.00
62547;PMS7003;48602;45.192;5.722;2023-07-30T02:44:56;17.00;15.40;11.40
62547;PMS7003;48602;45.192;5.722;2023-07-30T02:47:21;16.00;14.75;10.00
62547;PMS7003;48602;45.192;5.722;2023-07-30T02:49:46;11.00;10.00;7.00
62547;PMS7003;48602;45.192;5.722;2023-07-30T02:52:12;10.75;9.25;8.25
62547;PMS7003;48602;45.192;5.722;2023-07-30T02:54:37;10.25;10.00;8.00
62547;PMS7003;48602;45.192;5.722;2023-07-30T02:57:03;15.25;12.75;10.25
62547;PMS7003;48602;45.192;5.722;2023-07-30T02:59:28;13.00;12.00;10.00
62547;PMS7003;48602;45.192;5.722;2023-07-30T03:01:53;11.00;10.00;8.50
62547;PMS7003;48602;45.192;5.722;2023-07-30T03:04:19;6.75;6.50;6.00
62547;PMS7003;48602;45.192;5.722;2023-07-30T03:06:44;7.50;7.25;6.75
62547;PMS7003;48602;45.192;5.722;2023-07-30T03:09:09;7.50;6.50;6.00
62547;PMS7003;48602;45.192;5.722;2023-07-30T03:11:35;7.75;7.00;6.00
62547;PMS7003;48602;45.192;5.722;2023-07-30T03:14:00;7.75;7.75;6.00
62547;PMS7003;48602;45.192;5.722;2023-07-30T03:16:26;8.25;6.75;6.00
62547;PMS7003;48602;45.192;5.722;2023-07-30T03:18:51;7.00;7.00;6.00
62547;PMS7003;48602;45.192;5.722;2023-07-30T03:21:16;7.50;7.00;6.00
62547;PMS7003;48602;45.192;5.722;2023-07-30T03:23:42;7.75;6.75;5.50
62547;PMS7003;48602;45.192;5.722;2023-07-30T03:26:09;9.20;7.20;6.00
62547;PMS7003;48602;45.192;5.722;2023-07-30T03:28:35;6.75;6.50;6.00
62547;PMS7003;48602;45.192;5.722;2023-07-30T03:31:00;9.00;7.75;6.00
62547;PMS7003;48602;45.192;5.722;2023-07-30T03:33:25;9.00;8.75;7.00
62547;PMS7003;48602;45.192;5.722;2023-07-30T03:35:51;7.00;6.25;5.00
62547;PMS7003;48602;45.192;5.722;2023-07-30T03:38:16;10.25;8.75;7.00
62547;PMS7003;48602;45.192;5.722;2023-07-30T03:40:42;7.25;7.00;5.00
62547;PMS7003;48602;45.192;5.722;2023-07-30T03:43:07;9.25;8.25;7.00
62547;PMS7003;48602;45.192;5.722;2023-07-30T03:45:32;9.50;8.50;7.25
62547;PMS7003;48602;45.192;5.722;2023-07-30T03:47:58;8.75;8.50;7.00
62547;PMS7003;48602;45.192;5.722;2023-07-30T03:50:23;6.50;6.50;5.75
62547;PMS7003;48602;45.192;5.722;2023-07-30T03:52:48;7.75;7.50;6.25
62547;PMS7003;48602;45.192;5.722;2023-07-30T03:55:14;9.50;9.00;7.75
62547;PMS7003;48602;45.192;5.722;2023-07-30T03:57:40;8.50;8.50;7.00
62547;PMS7003;48602;45.192;5.722;2023-07-30T04:00:06;9.75;9.00;8.00
62547;PMS7003;48602;45.192;5.722;2023-07-30T04:02:32;4.80;4.80;4.00
62547;PMS7003;48602;45.192;5.722;2023-07-30T04:04:57;10.00;9.25;8.00
62547;PMS7003;48602;45.192;5.722;2023-07-30T04:07:23;9.75;9.75;7.75
62547;PMS7003;48602;45.192;5.722;2023-07-30T04:09:48;8.25;8.25;6.75
62547;PMS7003;48602;45.192;5.722;2023-07-30T04:12:13;9.25;8.50;7.75
62547;PMS7003;48602;45.192;5.722;2023-07-30T04:14:39;13.50;8.75;7.50
62547;PMS7003;48602;45.192;5.722;2023-07-30T04:17:04;8.00;8.00;7.00
62547;PMS7003;48602;45.192;5.722;2023-07-30T04:19:30;8.00;8.00;6.50
62547;PMS7003;48602;45.192;5.722;2023-07-30T04:21:55;10.00;10.00;7.75
62547;PMS7003;48602;45.192;5.722;2023-07-30T04:24:21;11.00;10.25;9.00
62547;PMS7003;48602;45.192;5.722;2023-07-30T04:26:46;10.50;9.00;8.00
62547;PMS7003;48602;45.192;5.722;2023-07-30T04:29:12;9.50;8.00;7.50
62547;PMS7003;48602;45.192;5.722;2023-07-30T04:31:39;12.00;9.40;8.20
62547;PMS7003;48602;45.192;5.722;2023-07-30T04:34:04;8.50;8.50;6.25
62547;PMS7003;48602;45.192;5.722;2023-07-30T04:36:29;8.50;8.50;7.00
62547;PMS7003;48602;45.192;5.722;2023-07-30T04:38:55;10.50;9.75;7.00
62547;PMS7003;48602;45.192;5.722;2023-07-30T04:41:20;10.50;9.50;8.00
62547;PMS7003;48602;45.192;5.722;2023-07-30T04:43:46;9.00;8.50;7.00
62547;PMS7003;48602;45.192;5.722;2023-07-30T04:46:11;9.75;8.50;8.00
62547;PMS7003;48602;45.192;5.722;2023-07-30T04:48:37;10.25;8.75;7.00
62547;PMS7003;48602;45.192;5.722;2023-07-30T04:51:02;7.75;7.75;6.75
62547;PMS7003;48602;45.192;5.722;2023-07-30T04:53:28;9.00;8.00;7.00
62547;PMS7003;48602;45.192;5.722;2023-07-30T04:55:56;6.25;6.00;5.50
62547;PMS7003;48602;45.192;5.722;2023-07-30T04:58:22;7.20;7.20;6.00
62547;PMS7003;48602;45.192;5.722;2023-07-30T05:00:48;9.25;9.25;8.00
62547;PMS7003;48602;45.192;5.722;2023-07-30T05:03:14;9.00;9.00;7.50
62547;PMS7003;48602;45.192;5.722;2023-07-30T05:05:39;8.50;8.50;7.50
62547;PMS7003;48602;45.192;5.722;2023-07-30T05:08:05;10.25;7.50;6.50
62547;PMS7003;48602;45.192;5.722;2023-07-30T05:10:31;9.50;9.50;9.25
62547;PMS7003;48602;45.192;5.722;2023-07-30T05:12:56;10.00;9.50;8.00
62547;PMS7003;48602;45.192;5.722;2023-07-30T05:15:21;10.00;9.50;7.75
62547;PMS7003;48602;45.192;5.722;2023-07-30T05:17:47;10.50;10.00;8.00
62547;PMS7003;48602;45.192;5.722;2023-07-30T05:20:12;9.00;9.00;8.00
62547;PMS7003;48602;45.192;5.722;2023-07-30T05:22:37;9.50;8.50;6.75
62547;PMS7003;48602;45.192;5.722;2023-07-30T05:25:03;11.00;9.00;7.00
62547;PMS7003;48602;45.192;5.722;2023-07-30T05:27:28;9.00;9.00;7.00
62547;PMS7003;48602;45.192;5.722;2023-07-30T05:29:56;10.60;9.20;8.00
62547;PMS7003;48602;45.192;5.722;2023-07-30T05:32:21;8.50;8.50;7.00
62547;PMS7003;48602;45.192;5.722;2023-07-30T05:34:47;12.50;8.75;7.75
62547;PMS7003;48602;45.192;5.722;2023-07-30T05:37:12;5.00;3.75;3.00
62547;PMS7003;48602;45.192;5.722;2023-07-30T05:39:37;7.50;6.50;5.50
62547;PMS7003;48602;45.192;5.722;2023-07-30T05:42:03;9.50;9.00;7.00
62547;PMS7003;48602;45.192;5.722;2023-07-30T05:44:29;9.25;9.25;8.25
62547;PMS7003;48602;45.192;5.722;2023-07-30T05:46:54;9.00;8.50;7.00
62547;PMS7003;48602;45.192;5.722;2023-07-30T05:49:19;9.00;9.00;7.50
62547;PMS7003;48602;45.192;5.722;2023-07-30T05:51:45;9.75;9.75;9.00
62547;PMS7003;48602;45.192;5.722;2023-07-30T05:54:10;9.75;7.00;6.00
62547;PMS7003;48602;45.192;5.722;2023-07-30T05:56:37;11.20;10.00;7.60
62547;PMS7003;48602;45.192;5.722;2023-07-30T05:59:03;7.50;7.50;6.25
62547;PMS7003;48602;45.192;5.722;2023-07-30T06:01:28;10.00;8.50;7.00
62547;PMS7003;48602;45.192;5.722;2023-07-30T06:03:53;8.75;8.75;8.00
62547;PMS7003;48602;45.192;5.722;2023-07-30T06:06:19;6.75;6.00;5.75
62547;PMS7003;48602;45.192;5.722;2023-07-30T06:08:51;8.00;8.00;7.00
62547;PMS7003;48602;45.192;5.722;2023-07-30T06:11:17;13.00;9.00;7.75
62547;PMS7003;48602;45.192;5.722;2023-07-30T06:13:42;9.00;9.00;8.25
62547;PMS7003;48602;45.192;5.722;2023-07-30T06:16:08;7.25;7.25;7.00
62547;PMS7003;48602;45.192;5.722;2023-07-30T06:18:34;11.20;9.80;8.00
62547;PMS7003;48602;45.192;5.722;2023-07-30T06:21:00;8.75;8.75;8.00
62547;PMS7003;48602;45.192;5.722;2023-07-30T06:23:25;6.25;6.25;5.50
62547;PMS7003;48602;45.192;5.722;2023-07-30T06:25:50;8.00;8.00;7.00
62547;PMS7003;48602;45.192;5.722;2023-07-30T06:28:16;10.25;9.50;8.00
62547;PMS7003;48602;45.192;5.722;2023-07-30T06:30:41;10.00;9.00;7.00
62547;PMS7003;48602;45.192;5.722;2023-07-30T06:33:06;8.50;8.50;7.75
62547;PMS7003;48602;45.192;5.722;2023-07-30T06:35:32;7.75;7.75;6.50
62547;PMS7003;48602;45.192;5.722;2023-07-30T06:37:57;9.75;9.75;8.00
62547;PMS7003;48602;45.192;5.722;2023-07-30T06:40:23;12.00;12.00;8.00
62547;PMS7003;48602;45.192;5.722;2023-07-30T06:42:48;9.00;7.50;6.50
62547;PMS7003;48602;45.192;5.722;2023-07-30T06:45:13;12.25;10.50;8.50
62547;PMS7003;48602;45.192;5.722;2023-07-30T06:47:39;11.00;10.00;8.50
62547;PMS7003;48602;45.192;5.722;2023-07-30T06:50:05;9.50;9.25;8.25
62547;PMS7003;48602;45.192;5.722;2023-07-30T06:52:33;11.80;9.80;8.20
62547;PMS7003;48602;45.192;5.722;2023-07-30T06:54:59;13.00;11.00;9.50
62547;PMS7003;48602;45.192;5.722;2023-07-30T06:57:24;11.75;10.00;9.00
62547;PMS7003;48602;45.192;5.722;2023-07-30T06:59:49;12.00;11.00;8.50
62547;PMS7003;48602;45.192;5.722;2023-07-30T07:02:15;12.25;8.75;7.00
62547;PMS7003;48602;45.192;5.722;2023-07-30T07:04:40;11.25;9.25;7.25
62547;PMS7003;48602;45.192;5.722;2023-07-30T07:07:06;8.75;8.00;7.00
62547;PMS7003;48602;45.192;5.722;2023-07-30T07:09:31;11.50;11.50;9.50
62547;PMS7003;48602;45.192;5.722;2023-07-30T07:11:57;11.50;10.75;9.75
62547;PMS7003;48602;45.192;5.722;2023-07-30T07:14:23;11.80;10.40;9.00
62547;PMS7003;48602;45.192;5.722;2023-07-30T07:16:48;13.75;13.50;11.50
62547;PMS7003;48602;45.192;5.722;2023-07-30T07:19:13;7.75;7.00;4.75
62547;PMS7003;48602;45.192;5.722;2023-07-30T07:21:39;10.00;7.25;6.75
62547;PMS7003;48602;45.192;5.722;2023-07-30T07:24:04;14.75;11.50;10.25
62547;PMS7003;48602;45.192;5.722;2023-07-30T07:26:30;10.75;10.75;9.00
62547;PMS7003;48602;45.192;5.722;2023-07-30T07:28:55;12.50;10.00;9.00
62547;PMS7003;48602;45.192;5.722;2023-07-30T07:31:21;11.25;10.50;8.00
62547;PMS7003;48602;45.192;5.722;2023-07-30T07:33:46;14.00;10.00;9.00
62547;PMS7003;48602;45.192;5.722;2023-07-30T07:36:12;11.25;10.00;8.25
62547;PMS7003;48602;45.192;5.722;2023-07-30T07:38:39;13.00;10.40;9.00
62547;PMS7003;48602;45.192;5.722;2023-07-30T07:41:04;11.00;10.75;9.00
62547;PMS7003;48602;45.192;5.722;2023-07-30T07:43:30;11.75;10.75;9.00
62547;PMS7003;48602;45.192;5.722;2023-07-30T07:45:55;11.00;11.00;8.50
62547;PMS7003;48602;45.192;5.722;2023-07-30T07:48:21;9.75;9.75;8.00
62547;PMS7003;48602;45.192;5.722;2023-07-30T07:50:46;10.75;10.00;9.00
62547;PMS7003;48602;45.192;5.722;2023-07-30T07:53:11;12.00;10.75;8.50
62547;PMS7003;48602;45.192;5.722;2023-07-30T07:55:37;11.75;11.75;9.50
62547;PMS7003;48602;45.192;5.722;2023-07-30T07:58:02;11.25;11.00;9.00
62547;PMS7003;48602;45.192;5.722;2023-07-30T08:00:28;11.00;10.50;9.25
62547;PMS7003;48602;45.192;5.722;2023-07-30T08:02:53;11.00;11.00;8.00
62547;PMS7003;48602;45.192;5.722;2023-07-30T08:05:18;11.25;11.25;9.25
62547;PMS7003;48602;45.192;5.722;2023-07-30T08:07:45;13.00;11.20;9.40
62547;PMS7003;48602;45.192;5.722;2023-07-30T08:10:11;10.80;10.20;7.40
62547;PMS7003;48602;45.192;5.722;2023-07-30T08:12:37;11.50;11.25;10.50
62547;PMS7003;48602;45.192;5.722;2023-07-30T08:15:02;12.75;12.75;9.50
62547;PMS7003;48602;45.192;5.722;2023-07-30T08:17:28;9.00;8.25;7.50
62547;PMS7003;48602;45.192;5.722;2023-07-30T08:19:54;6.00;4.00;4.00
62547;PMS7003;48602;45.192;5.722;2023-07-30T08:22:19;3.75;3.75;3.25
62547;PMS7003;48602;45.192;5.722;2023-07-30T08:24:45;4.00;4.00;3.00
62547;PMS7003;48602;45.192;5.722;2023-07-30T08:27:10;5.00;5.00;4.50
62547;PMS7003;48602;45.192;5.722;2023-07-30T08:29:35;4.00;4.00;4.00
62547;PMS7003;48602;45.192;5.722;2023-07-30T08:32:01;6.50;6.00;5.50
62547;PMS7003;48602;45.192;5.722;2023-07-30T08:34:26;9.75;8.00;6.00
62547;PMS7003;48602;45.192;5.722;2023-07-30T08:36:51;8.25;8.25;7.00
62547;PMS7003;48602;45.192;5.722;2023-07-30T08:39:17;4.50;3.00;1.50
62547;PMS7003;48602;45.192;5.722;2023-07-30T08:41:43;5.75;5.75;5.00
62547;PMS7003;48602;45.192;5.722;2023-07-30T08:44:09;8.40;8.40;8.00
62547;PMS7003;48602;45.192;5.722;2023-07-30T08:46:35;13.25;11.75;10.00
62547;PMS7003;48602;45.192;5.722;2023-07-30T08:49:00;16.25;11.00;10.25
62547;PMS7003;48602;45.192;5.722;2023-07-30T08:51:26;13.25;12.25;10.25
62547;PMS7003;48602;45.192;5.722;2023-07-30T08:53:51;10.00;9.25;6.75
62547;PMS7003;48602;45.192;5.722;2023-07-30T08:56:17;14.75;11.25;10.00
62547;PMS7003;48602;45.192;5.722;2023-07-30T08:58:44;13.80;12.00;10.00
62547;PMS7003;48602;45.192;5.722;2023-07-30T09:01:11;11.40;11.40;8.80
62547;PMS7003;48602;45.192;5.722;2023-07-30T09:03:38;12.60;10.40;9.00
62547;PMS7003;48602;45.192;5.722;2023-07-30T09:06:04;11.60;10.60;8.80
62547;PMS7003;48602;45.192;5.722;2023-07-30T09:08:30;10.75;10.75;9.75
62547;PMS7003;48602;45.192;5.722;2023-07-30T09:10:57;10.60;10.20;8.40
62547;PMS7003;48602;45.192;5.722;2023-07-30T09:13:30;11.40;11.40;9.60
62547;PMS7003;48602;45.192;5.722;2023-07-30T09:16:07;9.40;9.40;7.80
62547;PMS7003;48602;45.192;5.722;2023-07-30T09:18:38;11.40;11.20;10.40
62547;PMS7003;48602;45.192;5.722;2023-07-30T09:21:04;13.80;13.00;10.80
62547;PMS7003;48602;45.192;5.722;2023-07-30T09:23:29;8.00;6.75;4.25
62547;PMS7003;48602;45.192;5.722;2023-07-30T09:25:57;14.75;14.75;12.00
62547;PMS7003;48602;45.192;5.722;2023-07-30T09:28:28;13.80;13.40;11.80
62547;PMS7003;48602;45.192;5.722;2023-07-30T09:30:59;17.00;13.80;12.20
62547;PMS7003;48602;45.192;5.722;2023-07-30T09:33:26;12.60;11.40;9.80
62547;PMS7003;48602;45.192;5.722;2023-07-30T09:35:52;12.25;12.25;10.50
62547;PMS7003;48602;45.192;5.722;2023-07-30T09:38:18;10.80;10.80;9.60
62547;PMS7003;48602;45.192;5.722;2023-07-30T09:40:45;14.40;14.40;12.20
62547;PMS7003;48602;45.192;5.722;2023-07-30T09:43:12;13.60;11.40;8.00
62547;PMS7003;48602;45.192;5.722;2023-07-30T09:45:38;4.25;4.25;4.25
62547;PMS7003;48602;45.192;5.722;2023-07-30T09:48:04;6.00;6.00;4.50
62547;PMS7003;48602;45.192;5.722;2023-07-30T09:50:30;5.00;5.00;4.00
62547;PMS7003;48602;45.192;5.722;2023-07-30T09:52:58;6.00;6.00;5.00
62547;PMS7003;48602;45.192;5.722;2023-07-30T09:55:26;5.80;5.40;5.00
62547;PMS7003;48602;45.192;5.722;2023-07-30T09:57:51;7.50;7.50;6.00
62547;PMS7003;48602;45.192;5.722;2023-07-30T10:00:17;11.75;10.75;9.50
62547;PMS7003;48602;45.192;5.722;2023-07-30T10:02:45;7.75;7.75;6.00
62547;PMS7003;48602;45.192;5.722;2023-07-30T10:05:15;7.80;7.80;6.80
62547;PMS7003;48602;45.192;5.722;2023-07-30T10:07:43;6.40;3.60;3.20
62547;PMS7003;48602;45.192;5.722;2023-07-30T10:10:14;4.80;4.80;4.20
62547;PMS7003;48602;45.192;5.722;2023-07-30T10:12:40;5.25;5.25;3.75
62547;PMS7003;48602;45.192;5.722;2023-07-30T10:15:08;6.00;6.00;5.00
62547;PMS7003;48602;45.192;5.722;2023-07-30T10:17:33;7.00;6.25;5.50
62547;PMS7003;48602;45.192;5.722;2023-07-30T10:20:17;11.00;8.75;7.00
62547;PMS7003;48602;45.192;5.722;2023-07-30T10:22:54;7.00;7.00;6.60
62547;PMS7003;48602;45.192;5.722;2023-07-30T10:25:22;9.20;7.00;7.00
62547;PMS7003;48602;45.192;5.722;2023-07-30T10:27:53;5.80;5.80;5.40
62547;PMS7003;48602;45.192;5.722;2023-07-30T10:30:19;10.00;8.00;7.75
62547;PMS7003;48602;45.192;5.722;2023-07-30T10:33:01;7.20;7.20;6.00
62547;PMS7003;48602;45.192;5.722;2023-07-30T10:37:59;6.20;6.20;5.80
62547;PMS7003;48602;45.192;5.722;2023-07-30T10:40:25;7.25;7.00;6.50
62547;PMS7003;48602;45.192;5.722;2023-07-30T10:42:50;6.00;6.00;6.00
62547;PMS7003;48602;45.192;5.722;2023-07-30T10:45:16;9.00;8.00;6.00
62547;PMS7003;48602;45.192;5.722;2023-07-30T10:47:41;13.00;11.75;9.25
62547;PMS7003;48602;45.192;5.722;2023-07-30T10:50:07;7.00;7.00;5.50
62547;PMS7003;48602;45.192;5.722;2023-07-30T10:52:35;9.00;9.00;7.40
62547;PMS7003;48602;45.192;5.722;2023-07-30T10:55:01;2.25;2.25;1.75
62547;PMS7003;48602;45.192;5.722;2023-07-30T10:57:30;7.00;6.00;5.50
62547;PMS7003;48602;45.192;5.722;2023-07-30T10:59:57;6.00;6.00;5.40
62547;PMS7003;48602;45.192;5.722;2023-07-30T11:02:24;5.60;5.60;5.00
62547;PMS7003;48602;45.192;5.722;2023-07-30T11:04:49;5.75;4.75;4.75
62547;PMS7003;48602;45.192;5.722;2023-07-30T11:07:18;5.40;5.20;4.40
62547;PMS7003;48602;45.192;5.722;2023-07-30T11:09:47;7.40;6.60;6.00
62547;PMS7003;48602;45.192;5.722;2023-07-30T11:12:23;7.20;6.40;5.80
62547;PMS7003;48602;45.192;5.722;2023-07-30T11:14:49;5.50;5.50;5.25
62547;PMS7003;48602;45.192;5.722;2023-07-30T11:17:14;4.00;4.00;4.00
62547;PMS7003;48602;45.192;5.722;2023-07-30T11:19:43;4.80;4.80;4.40
62547;PMS7003;48602;45.192;5.722;2023-07-30T11:22:09;4.80;4.80;4.80
62547;PMS7003;48602;45.192;5.722;2023-07-30T11:24:37;5.25;4.75;4.50
62547;PMS7003;48602;45.192;5.722;2023-07-30T11:27:03;5.80;5.80;5.20
62547;PMS7003;48602;45.192;5.722;2023-07-30T11:29:29;5.75;5.75;4.50
62547;PMS7003;48602;45.192;5.722;2023-07-30T11:31:57;4.75;4.75;4.75
62547;PMS7003;48602;45.192;5.722;2023-07-30T11:34:24;5.00;5.00;5.00
62547;PMS7003;48602;45.192;5.722;2023-07-30T11:36:51;5.00;5.00;4.40
62547;PMS7003;48602;45.192;5.722;2023-07-30T11:39:17;4.80;4.40;4.00
62547;PMS7003;48602;45.192;5.722;2023-07-30T11:41:43;2.00;1.25;1.25
62547;PMS7003;48602;45.192;5.722;2023-07-30T11:44:08;4.00;4.00;4.00
62547;PMS7003;48602;45.192;5.722;2023-07-30T11:46:54;4.00;4.00;4.00
62547;PMS7003;48602;45.192;5.722;2023-07-30T11:49:19;4.25;4.25;3.50
62547;PMS7003;48602;45.192;5.722;2023-07-30T11:51:46;3.40;3.40;3.40
62547;PMS7003;48602;45.192;5.722;2023-07-30T11:54:20;3.20;3.00;3.00
62547;PMS7003;48602;45.192;5.722;2023-07-30T11:56:53;0.00;0.00;0.00
62547;PMS7003;48602;45.192;5.722;2023-07-30T11:59:19;5.40;5.40;4.80
62547;PMS7003;48602;45.192;5.722;2023-07-30T12:01:45;3.40;3.40;2.80
62547;PMS7003;48602;45.192;5.722;2023-07-30T12:04:11;4.25;4.25;3.75
62547;PMS7003;48602;45.192;5.722;2023-07-30T12:11:43;3.80;3.80;3.40
62547;PMS7003;48602;45.192;5.722;2023-07-30T12:14:13;1.80;1.80;1.00
62547;PMS7003;48602;45.192;5.722;2023-07-30T12:16:39;4.00;2.00;2.00
62547;PMS7003;48602;45.192;5.722;2023-07-30T12:19:04;3.75;3.75;3.50
62547;PMS7003;48602;45.192;5.722;2023-07-30T12:21:29;2.50;2.50;2.00
62547;PMS7003;48602;45.192;5.722;2023-07-30T12:23:55;3.00;3.00;3.00
62547;PMS7003;48602;45.192;5.722;2023-07-30T12:26:20;4.00;4.00;3.50
62547;PMS7003;48602;45.192;5.722;2023-07-30T12:28:45;2.50;2.00;2.00
62547;PMS7003;48602;45.192;5.722;2023-07-30T12:31:11;3.50;3.50;3.50
62547;PMS7003;48602;45.192;5.722;2023-07-30T12:33:36;3.00;3.00;2.75
62547;PMS7003;48602;45.192;5.722;2023-07-30T12:36:01;2.75;2.75;2.75
62547;PMS7003;48602;45.192;5.722;2023-07-30T12:38:27;6.00;6.00;5.00
62547;PMS7003;48602;45.192;5.722;2023-07-30T12:40:52;4.25;3.75;3.00
62547;PMS7003;48602;45.192;5.722;2023-07-30T12:43:17;3.75;3.00;3.00
62547;PMS7003;48602;45.192;5.722;2023-07-30T12:45:46;2.60;2.60;2.20
62547;PMS7003;48602;45.192;5.722;2023-07-30T12:48:12;2.25;2.00;2.00
62547;PMS7003;48602;45.192;5.722;2023-07-30T12:50:37;2.00;2.00;2.00
62547;PMS7003;48602;45.192;5.722;2023-07-30T12:53:03;3.50;3.00;2.50
62547;PMS7003;48602;45.192;5.722;2023-07-30T12:55:29;3.20;2.20;1.80
62547;PMS7003;48602;45.192;5.722;2023-07-30T12:57:54;2.50;2.50;2.00
62547;PMS7003;48602;45.192;5.722;2023-07-30T13:00:21;2.80;2.80;2.60
62547;PMS7003;48602;45.192;5.722;2023-07-30T13:02:46;3.25;3.25;3.25
62547;PMS7003;48602;45.192;5.722;2023-07-30T13:05:11;5.00;4.00;4.00
62547;PMS7003;48602;45.192;5.722;2023-07-30T13:07:38;3.00;3.00;2.00
62547;PMS7003;48602;45.192;5.722;2023-07-30T13:10:05;2.75;1.00;0.75
62547;PMS7003;48602;45.192;5.722;2023-07-30T13:12:31;2.80;2.80;2.80
62547;PMS7003;48602;45.192;5.722;2023-07-30T13:14:57;2.00;2.00;2.00
62547;PMS7003;48602;45.192;5.722;2023-07-30T13:17:23;3.80;3.80;2.80
62547;PMS7003;48602;45.192;5.722;2023-07-30T13:19:48;3.75;3.50;2.75
62547;PMS7003;48602;45.192;5.722;2023-07-30T13:22:14;3.00;2.75;2.75
62547;PMS7003;48602;45.192;5.722;2023-07-30T13:24:39;2.00;1.00;1.00
62547;PMS7003;48602;45.192;5.722;2023-07-30T13:27:05;4.00;4.00;4.00
62547;PMS7003;48602;45.192;5.722;2023-07-30T13:29:30;3.25;3.25;3.25
62547;PMS7003;48602;45.192;5.722;2023-07-30T13:31:56;3.00;3.00;2.75
62547;PMS7003;48602;45.192;5.722;2023-07-30T13:34:21;3.50;3.50;3.00
62547;PMS7003;48602;45.192;5.722;2023-07-30T13:36:47;3.00;2.00;2.00
62547;PMS7003;48602;45.192;5.722;2023-07-30T13:39:12;2.50;2.50;2.00
62547;PMS7003;48602;45.192;5.722;2023-07-30T13:41:37;0.50;0.00;0.00
62547;PMS7003;48602;45.192;5.722;2023-07-30T13:44:03;3.50;3.50;3.00
62547;PMS7003;48602;45.192;5.722;2023-07-30T13:46:28;2.00;2.00;2.00
62547;PMS7003;48602;45.192;5.722;2023-07-30T13:48:53;2.25;2.25;2.00
62547;PMS7003;48602;45.192;5.722;2023-07-30T13:51:19;4.25;4.25;3.25
62547;PMS7003;48602;45.192;5.722;2023-07-30T13:53:44;2.00;2.00;2.00
62547;PMS7003;48602;45.192;5.722;2023-07-30T13:56:10;3.25;3.25;3.00
62547;PMS7003;48602;45.192;5.722;2023-07-30T13:58:35;3.00;2.25;2.25
62547;PMS7003;48602;45.192;5.722;2023-07-30T14:01:00;1.50;1.50;1.50
62547;PMS7003;48602;45.192;5.722;2023-07-30T14:03:26;3.50;3.50;3.50
62547;PMS7003;48602;45.192;5.722;2023-07-30T14:05:51;1.50;1.50;1.00
62547;PMS7003;48602;45.192;5.722;2023-07-30T14:08:16;1.00;0.50;0.50
62547;PMS7003;48602;45.192;5.722;2023-07-30T14:10:42;2.00;2.00;1.75
62547;PMS7003;48602;45.192;5.722;2023-07-30T14:13:07;2.00;1.25;1.00
62547;PMS7003;48602;45.192;5.722;2023-07-30T14:15:32;2.50;2.50;2.25